Chignik Lagoon, AK (99565)

10:06 AM AKDT on May 04, 2015 (GMT -0800)
Chignik | | Change Station
CLOSE
Current Station
Airport
Location: Chignik,
Elevation: 16 ft
Nearby Weather Stations

Elev 16 ft 56.31 °N, 158.37 °W | Updated 10 minutes ago

Overcast
Overcast
43 °F
Feels Like 39 °F
N
6
Wind Variable Wind from SE

Today
High -- | Low -- °F
--% Chance of Precip.
Yesterday
High -- | Low -- °F
Precip. -- in
6:42 AM 10:20 PM
Full, 100% visible
Pressure 29.97 in
Visibility 8.0 miles
Clouds Scattered Clouds 3300 ft
Mostly Cloudy 4400 ft
Overcast 10000 ft
Windchill 39 °F
Dew Point 37 °F
Humidity 81%
Rainfall 0.14 in
Snow Depth Not available.
UV 1 out of 12
Pollen Not available.
Air Quality Not available.
Flu Activity Sporadic
METAR PAJC 041756Z AUTO 13005KT 8SM SCT033 BKN044 OVC100 06/03 A2997 RMK AO1 P0001 60004 10060 20050 57007

More Conditions Fewer Conditions

Pressure 29.97 in
Visibility 8.0 miles
Clouds Scattered Clouds 3300 ft
Mostly Cloudy 4400 ft
Overcast 10000 ft
Windchill 39 °F
Dew Point 37 °F
Humidity 81%
Rainfall 0.14 in
Snow Depth Not available.
UV 1 out of 12
Pollen Not available.
Air Quality Not available.
Flu Activity Sporadic
METAR PAJC 041756Z AUTO 13005KT 8SM SCT033 BKN044 OVC100 06/03 A2997 RMK AO1 P0001 60004 10060 20050 57007

More Conditions Fewer Conditions

10-Day Weather Forecast

Almanac

Astronomy

May. 04, 2015 Rise Set
Actual Time
Civil Twilight
Nautical Twilight
Astronomical Twilight
Moon
Length of Visible Light
Length of Day
Tomorrow will be .
, % of the Moon is Illuminated

Today's Extremes

State Highs State Lows

Community

WunderPhotos

Upload Photos

1,818,661 photos uploaded!

WunderBlogs® & News

Nearby

Air Quality

  Air Quality AQ Index Pollutant
Not available.

Snow Depth

Station Depth Elevation

Earthquake Activity

City Distance Mag. Time & Date
Minimum magnitude displayed is 2.5.

Coastal Water Temperatures

Place Temperature

Stations

Nearby Weather Stations

Station Location Temp. Windchill Dew Point Humidity Wind Precip. Elev Updated Type